MUC | München Airways

 METAR UND TAF INFORMATION

METAR FOR DTNH
ADDS - METARS form results

(0925 UTC 21 May 2019)
Data provider http://aviationweather.gov/metar/data/
 
METAR text: DTNH 210900Z 21012KT 9999 SCT020 22/10 Q1017 NOSIG
Conditions at: DTNH (ENFIDHA , TN) observed 0900 UTC 21 May 2019
Temperature: 22.0°C (72°F)
Dewpoint: 10.0°C (50°F) [RH = 46%]
Pressure (altimeter): 30.03 inches Hg (1017.0 mb)
Winds: from the SSW (210 degrees) at 14 MPH (12 knots; 6.2 m/s)
Visibility: 6 or more miles (10+ km)
Ceiling: at least 12,000 feet AGL
Clouds: scattered clouds at 2000 feet AGL
Weather: no significant weather observed at this time

METAR text: DTNH 210830Z 21011KT CAVOK 21/11 Q1017 NOSIG
Conditions at: DTNH (ENFIDHA , TN) observed 0830 UTC 21 May 2019
Temperature: 21.0°C (70°F)
Dewpoint: 11.0°C (52°F) [RH = 53%]
Pressure (altimeter): 30.03 inches Hg (1017.0 mb)
Winds: from the SSW (210 degrees) at 13 MPH (11 knots; 5.7 m/s)
Visibility: 6 or more miles (10+ km)
Ceiling: ceiling and visibility are OK
Clouds: unknown
Weather: no significant weather observed at this time

Forecast for: DTNH (ENFIDHA , TN)
Text: TAF DTNH 210500Z 2106/2206 19006KT CAVOK
Forecast period: 0600 to 0900 UTC 21 May 2019
Forecast type: FROM: standard forecast or significant change
Winds: from the S (190 degrees) at 7 MPH (6 knots; 3.1 m/s)
Visibility: 6 or more miles 10+ km)
Ceiling: unknown
Clouds: missing
Weather: NSW  (no significant weather)
Text: BECMG 2109/2111 12012KT 9999 FEW030
Forecast period: 0900 to 1300 UTC 21 May 2019
Forecast type: BECOMING: Conditions expected to become as follows by 1100 UTC 21 May 2019
Winds: from the ESE (120 degrees) at 14 MPH (12 knots; 6.2 m/s)
Visibility: 6 or more miles 10+ km)
Ceiling: at least 12,000 feet AGL
Clouds: few clouds at 3000 feet AGL
Weather: NSW  (no significant weather)
Text: BECMG 2113/2112 13018KT
Forecast period: 1300 to 1900 UTC 21 May 2019
Forecast type: BECOMING: Conditions expected to become as follows by 1200 UTC 21 May 2019
Winds: from the SE (130 degrees) at 21 MPH (18 knots; 9.3 m/s)
Visibility: 6 or more miles 10+ km)
Ceiling: at least 12,000 feet AGL
Clouds: few clouds at 3000 feet AGL
Weather: NSW  (no significant weather)
Text: BECMG 2119/2121 18008KT
Forecast period: 1900 UTC 21 May 2019 to 0600 UTC 22 May 2019
Forecast type: BECOMING: Conditions expected to become as follows by 2100 UTC 21 May 2019
Winds: from the S (180 degrees) at 9 MPH (8 knots; 4.1 m/s)
Visibility: 6 or more miles 10+ km)
Ceiling: at least 12,000 feet AGL
Clouds: few clouds at 3000 feet AGL
Weather: NSW  (no significant weather)

 FLUGHAFENKARTE

 RUNWAY INFORMATION

 AIRPORT FREQUENCIES

 AIRPORT NEAR NAVIGATION AIDS